createdAt,value
2023-02-24T00:01:19.268Z,42.38
2023-02-24T00:06:22.252Z,42.35
2023-02-24T00:11:28.064Z,41.60
2023-02-24T00:16:31.042Z,41.30
2023-02-24T00:21:34.522Z,41.95
2023-02-24T00:26:39.346Z,42.60
2023-02-24T00:31:43.308Z,42.17
2023-02-24T00:36:46.290Z,42.42
2023-02-24T00:41:51.189Z,40.95
2023-02-24T00:46:54.126Z,41.33
2023-02-24T00:51:57.510Z,41.50
2023-02-24T00:57:02.837Z,41.22
2023-02-24T01:02:07.099Z,41.97
2023-02-24T01:07:11.394Z,42.47
2023-02-24T01:12:29.638Z,41.70
2023-02-24T01:17:32.640Z,41.63
2023-02-24T01:22:35.506Z,42.97
2023-02-24T01:27:40.116Z,43.78
2023-02-24T01:32:44.661Z,42.47
2023-02-24T01:37:47.706Z,42.95
2023-02-24T01:42:52.611Z,42.28
2023-02-24T01:48:00.923Z,42.58
2023-02-24T01:53:06.919Z,42.40
2023-02-24T01:58:16.430Z,41.60
2023-02-24T02:03:25.201Z,43.17
2023-02-24T02:08:29.156Z,42.47
2023-02-24T02:13:35.753Z,41.42
2023-02-24T02:18:50.445Z,42.67
2023-02-24T02:23:59.231Z,42.88
2023-02-24T02:29:22.971Z,41.88
2023-02-24T02:34:37.865Z,42.55
2023-02-24T02:39:50.572Z,42.47
2023-02-24T02:45:05.196Z,41.85
2023-02-24T02:50:18.453Z,44.60
2023-02-24T02:55:27.435Z,44.45
2023-02-24T03:00:37.049Z,42.72
2023-02-24T03:05:47.257Z,41.97
2023-02-24T03:10:51.577Z,41.80
2023-02-24T03:15:56.256Z,42.20
2023-02-24T03:21:07.829Z,42.35
2023-02-24T03:26:19.069Z,40.88
2023-02-24T03:31:29.795Z,42.58
2023-02-24T03:36:34.390Z,42.50
2023-02-24T03:41:43.911Z,41.72
2023-02-24T03:46:47.436Z,42.13
2023-02-24T03:52:02.476Z,42.38
2023-02-24T03:57:18.949Z,42.10
2023-02-24T04:02:24.757Z,39.75
2023-02-24T04:07:41.013Z,42.22
2023-02-24T04:12:50.965Z,43.03
2023-02-24T04:17:58.442Z,42.63
2023-02-24T04:23:13.705Z,42.30
2023-02-24T04:28:18.947Z,42.80
2023-02-24T04:33:22.319Z,45.58
2023-02-24T04:38:28.187Z,45.25
2023-02-24T04:43:31.347Z,45.85
2023-02-24T04:48:34.303Z,47.50
2023-02-24T04:53:38.885Z,47.17
2023-02-24T04:58:49.819Z,48.10
2023-02-24T05:03:52.743Z,47.85
2023-02-24T05:08:57.096Z,47.47
2023-02-24T05:14:00.258Z,46.72
2023-02-24T05:19:19.675Z,47.63
2023-02-24T05:24:25.282Z,47.90
2023-02-24T05:29:30.062Z,46.70
2023-02-24T05:34:34.638Z,46.40
2023-02-24T05:39:39.274Z,47.65
2023-02-24T05:44:42.144Z,44.47
2023-02-24T05:49:45.116Z,45.80
2023-02-24T05:54:49.831Z,50.97
2023-02-24T05:59:53.139Z,45.47
2023-02-24T06:04:56.115Z,44.67
2023-02-24T06:10:00.463Z,44.55
2023-02-24T06:15:07.475Z,43.47
2023-02-24T06:20:15.574Z,45.67
2023-02-24T06:25:20.089Z,45.30
2023-02-24T06:30:24.743Z,45.38
2023-02-24T06:35:28.134Z,43.58
2023-02-24T06:40:32.326Z,45.63
2023-02-24T06:45:35.505Z,45.15
2023-02-24T06:50:39.206Z,46.67
2023-02-24T06:55:46.357Z,44.95
2023-02-24T07:00:56.766Z,48.35
2023-02-24T07:06:12.290Z,47.67
2023-02-24T07:11:19.076Z,47.13
2023-02-24T07:16:25.163Z,47.50
2023-02-24T07:21:30.153Z,46.15
2023-02-24T07:26:34.726Z,47.83
2023-02-24T07:31:37.886Z,44.70
2023-02-24T07:36:49.153Z,47.63
2023-02-24T07:41:55.471Z,44.03
2023-02-24T07:46:59.413Z,44.38
2023-02-24T07:52:02.493Z,44.45
2023-02-24T07:57:13.251Z,45.13
2023-02-24T08:02:18.283Z,44.30
2023-02-24T08:07:24.606Z,44.15
2023-02-24T08:12:30.603Z,42.08
2023-02-24T08:17:33.594Z,42.75
2023-02-24T08:22:37.366Z,41.88
2023-02-24T08:27:42.128Z,41.80
2023-02-24T08:32:46.663Z,42.35
2023-02-24T08:37:52.022Z,41.65
2023-02-24T08:42:58.509Z,42.10
2023-02-24T08:48:13.749Z,42.50
2023-02-24T08:53:19.228Z,40.42
2023-02-24T08:58:27.128Z,42.38
2023-02-24T09:03:33.533Z,42.10
2023-02-24T09:08:39.071Z,41.47
2023-02-24T09:13:52.500Z,41.60
2023-02-24T09:19:09.363Z,41.17
2023-02-24T09:24:12.620Z,40.28
2023-02-24T09:29:30.914Z,40.97
2023-02-24T09:34:34.627Z,40.70
2023-02-24T09:39:52.080Z,41.75
2023-02-24T09:45:00.763Z,41.95
2023-02-24T09:50:14.055Z,42.00
2023-02-24T09:55:25.044Z,42.85
2023-02-24T10:00:34.746Z,42.58
2023-02-24T10:05:47.408Z,43.22
2023-02-24T10:11:07.109Z,42.55
2023-02-24T10:16:16.822Z,42.30
2023-02-24T10:21:30.677Z,43.85
2023-02-24T10:26:51.335Z,43.67
2023-02-24T10:32:33.749Z,45.33
2023-02-24T10:37:36.737Z,43.92
2023-02-24T10:42:45.863Z,42.53
2023-02-24T10:47:56.712Z,44.45
2023-02-24T10:53:26.629Z,44.53
2023-02-24T10:58:44.644Z,44.78
2023-02-24T11:04:22.527Z,40.03
2023-02-24T11:09:35.163Z,41.50
2023-02-24T11:15:05.300Z,40.53
2023-02-24T11:20:24.767Z,43.78
2023-02-24T11:25:35.452Z,44.10
2023-02-24T11:30:46.277Z,43.75
2023-02-24T11:36:05.176Z,44.83
2023-02-24T11:41:16.920Z,43.80
2023-02-24T11:46:27.928Z,43.88
2023-02-24T11:51:37.016Z,43.03
2023-02-24T11:56:43.924Z,44.92
2023-02-24T12:01:53.420Z,43.03
2023-02-24T12:07:02.980Z,45.17
2023-02-24T12:12:15.952Z,45.67
2023-02-24T12:17:25.315Z,43.90
2023-02-24T12:22:38.524Z,40.65
2023-02-24T12:27:55.652Z,43.17
2023-02-24T12:33:18.013Z,40.28
2023-02-24T12:38:38.393Z,42.22
2023-02-24T12:43:49.403Z,41.38
2023-02-24T12:49:16.319Z,41.63
2023-02-24T12:54:29.302Z,42.63
2023-02-24T12:59:38.399Z,43.63
2023-02-24T13:04:49.321Z,42.75
2023-02-24T13:10:10.810Z,43.33
2023-02-24T13:15:21.237Z,42.95
2023-02-24T13:20:33.018Z,43.75
2023-02-24T13:25:38.498Z,44.20
2023-02-24T13:30:44.863Z,44.83
2023-02-24T13:35:48.952Z,44.97
2023-02-24T13:40:53.761Z,43.90
2023-02-24T13:45:59.989Z,46.17
2023-02-24T13:51:29.223Z,45.05
2023-02-24T13:56:44.650Z,44.85
2023-02-24T14:01:50.764Z,44.10
2023-02-24T14:06:55.968Z,44.03
2023-02-24T14:12:03.703Z,45.15
2023-02-24T14:17:06.591Z,44.90
2023-02-24T14:22:20.478Z,42.58
2023-02-24T14:27:27.721Z,44.15
2023-02-24T14:32:34.563Z,44.85
2023-02-24T14:37:37.855Z,44.25
2023-02-24T14:42:49.980Z,44.40
2023-02-24T14:47:53.330Z,44.65
2023-02-24T14:53:00.508Z,46.90
2023-02-24T14:58:10.449Z,44.67
2023-02-24T15:03:19.258Z,44.25
2023-02-24T15:08:31.410Z,46.10
2023-02-24T15:13:40.731Z,42.15
2023-02-24T15:18:43.946Z,42.70
2023-02-24T15:23:48.352Z,42.60
2023-02-24T15:29:00.968Z,42.05
2023-02-24T15:34:04.030Z,43.50
2023-02-24T15:39:10.222Z,42.28
2023-02-24T15:44:28.998Z,45.08
2023-02-24T15:49:31.879Z,45.35
2023-02-24T15:54:37.703Z,43.08
2023-02-24T15:59:42.021Z,46.53
2023-02-24T16:04:45.310Z,44.78
2023-02-24T16:09:49.728Z,47.65
2023-02-24T16:15:02.011Z,49.20
2023-02-24T16:20:09.159Z,49.10
2023-02-24T16:25:16.348Z,52.35
2023-02-24T16:30:22.743Z,50.78
2023-02-24T16:35:26.809Z,51.28
2023-02-24T16:40:37.301Z,52.05
2023-02-24T16:45:42.510Z,47.40
2023-02-24T16:50:45.446Z,48.45
2023-02-24T16:55:48.652Z,45.55
2023-02-24T17:00:57.278Z,47.53
2023-02-24T17:06:00.360Z,44.38
2023-02-24T17:11:05.793Z,44.42
2023-02-24T17:16:10.215Z,43.70
2023-02-24T17:21:15.560Z,45.20
2023-02-24T17:26:18.722Z,59.70
2023-02-24T17:31:23.483Z,47.38
2023-02-24T17:36:26.588Z,44.28
2023-02-24T17:41:29.557Z,43.85
2023-02-24T17:46:33.890Z,48.63
2023-02-24T17:51:36.822Z,47.10
2023-02-24T17:56:39.723Z,60.70
2023-02-24T18:01:44.016Z,42.50
2023-02-24T18:06:47.056Z,41.88
2023-02-24T18:11:50.029Z,40.78
2023-02-24T18:16:54.264Z,38.50
2023-02-24T18:21:57.224Z,39.95
2023-02-24T18:27:00.108Z,39.88
2023-02-24T18:32:04.706Z,38.67
2023-02-24T18:37:07.765Z,39.53
2023-02-24T18:42:11.661Z,38.75
2023-02-24T18:47:16.491Z,38.80
2023-02-24T18:52:19.512Z,38.90
2023-02-24T18:57:22.410Z,38.10
2023-02-24T19:02:31.854Z,37.92
2023-02-24T19:07:34.787Z,37.35
2023-02-24T19:12:37.826Z,38.45
2023-02-24T19:17:42.080Z,39.25
2023-02-24T19:22:45.253Z,36.95
2023-02-24T19:27:48.648Z,37.75
2023-02-24T19:32:53.046Z,37.67
2023-02-24T19:37:56.088Z,38.50
2023-02-24T19:42:59.031Z,36.33
2023-02-24T19:48:03.403Z,37.42
2023-02-24T19:53:06.587Z,37.90
2023-02-24T19:58:20.859Z,38.05
2023-02-24T20:03:28.353Z,38.25
2023-02-24T20:08:31.903Z,37.20
2023-02-24T20:13:34.802Z,38.03
2023-02-24T20:18:39.811Z,38.47
2023-02-24T20:23:43.123Z,37.28
2023-02-24T20:28:48.288Z,38.85
2023-02-24T20:33:52.952Z,37.25
2023-02-24T20:39:00.159Z,39.00
2023-02-24T20:44:03.115Z,38.80
2023-02-24T20:49:09.115Z,39.38
2023-02-24T20:54:13.653Z,38.45
2023-02-24T20:59:21.925Z,39.63
2023-02-24T21:04:26.294Z,39.03
2023-02-24T21:09:29.273Z,40.45
2023-02-24T21:14:32.213Z,39.17
2023-02-24T21:19:36.543Z,38.53
2023-02-24T21:24:39.411Z,40.22
2023-02-24T21:29:42.529Z,39.63
2023-02-24T21:34:46.921Z,39.60
2023-02-24T21:39:50.093Z,39.45
2023-02-24T21:44:52.994Z,39.15
2023-02-24T21:49:57.172Z,39.22
2023-02-24T21:55:00.030Z,39.95
2023-02-24T22:00:11.544Z,40.03
2023-02-24T22:05:16.576Z,38.17
2023-02-24T22:10:23.328Z,39.85
2023-02-24T22:15:26.213Z,40.60
2023-02-24T22:20:30.568Z,39.22
2023-02-24T22:25:33.490Z,38.80
2023-02-24T22:30:36.354Z,39.08
2023-02-24T22:35:40.584Z,38.17
2023-02-24T22:40:43.517Z,39.50
2023-02-24T22:45:55.807Z,39.45
2023-02-24T22:51:01.935Z,39.42
2023-02-24T22:56:05.400Z,39.88
2023-02-24T23:01:10.612Z,39.08
2023-02-24T23:06:16.392Z,39.22
2023-02-24T23:11:21.573Z,39.15
2023-02-24T23:16:27.322Z,39.15
2023-02-24T23:21:35.938Z,38.45
2023-02-24T23:26:41.900Z,38.63
2023-02-24T23:31:45.590Z,38.58
2023-02-24T23:36:49.928Z,37.63
2023-02-24T23:41:56.481Z,37.20
2023-02-24T23:47:01.253Z,37.83
2023-02-24T23:52:05.489Z,36.90
2023-02-24T23:57:08.372Z,37.10
